Kimberley, Canada
Current Conditions -  °F | °C
As of 2:00 PM on Friday 28 Nov 2014 (Local Time) from CYXC Reporting Station
Rain Showers Rain Showers  
Wind Chill:   Ceiling: 5800
Heat Index:   Visibility: 15mi
Dew Point:   Wind: 14mph
Humidity: 81%   Direction: 170°S
Pressure: 29.22"   Gusts: 21mph
Location:  49.68°N, 115.98°W
Report Text: CYXC 282100Z 17012G18KT 15SM -SHRA FEW030 BKN058 OVC100 07/04 A2922 RMK SC2SC3AC3 CVCTV CLD EMBD VIS HIER N SLP905 DENSITY ALT 3600FT
Loading
Personal Weather Stations






























Interactive Weather Map New forecast layout! Learn more

10-Day Weather Forecast

Advertisements
Track Severe Weather on mobile